Time;durP1;ratioP1;P1;durP2;ratioP2;P2;SDS_P1;SDS_P2;PMS_P1;PMS_P2;Temp;Humidity;BMP_temperature;BMP_pressure;BME280_temperature;BME280_humidity;BME280_pressure;Samples;Min_cycle;Max_cycle;Signal;HPM_P1;HPM_P2
2022/02/20 00:01:42;;;;;;;37.10;24.80;;;;;;;9.82;52.03;99794.50;4957902;28;20057;-92
2022/02/20 00:04:08;;;;;;;40.88;25.60;;;;;;;9.81;52.31;99802.56;4955487;28;20046;-92
2022/02/20 00:06:33;;;;;;;40.03;27.67;;;;;;;9.14;52.06;99715.78;4955424;28;20412;-92
2022/02/20 00:08:59;;;;;;;42.83;27.27;;;;;;;9.49;52.10;99769.94;4956213;28;20039;-92
2022/02/20 00:11:24;;;;;;;43.50;29.30;;;;;;;8.42;52.31;99590.16;4955769;28;20101;-92
2022/02/20 00:13:52;;;;;;;36.85;25.08;;;;;;;8.15;52.61;99599.94;4955702;28;20030;-92
2022/02/20 00:16:17;;;;;;;38.00;24.23;;;;;;;9.75;52.66;99803.25;4958156;28;20035;-93
2022/02/20 00:18:43;;;;;;;36.47;25.08;;;;;;;9.58;52.71;99760.22;4955945;28;20423;-92
2022/02/20 00:21:09;;;;;;;35.03;22.70;;;;;;;9.63;52.48;99776.34;4955911;28;20128;-92
2022/02/20 00:23:34;;;;;;;33.30;21.23;;;;;;;9.73;52.99;99797.31;4956573;28;20023;-93
2022/02/20 00:25:59;;;;;;;32.13;23.00;;;;;;;8.76;53.07;99648.75;4956005;28;20041;-93
2022/02/20 00:28:25;;;;;;;34.92;24.17;;;;;;;9.63;53.33;99768.44;4958747;28;20042;-93
2022/02/20 00:30:51;;;;;;;38.42;26.92;;;;;;;8.88;53.08;99641.34;4959154;28;20035;-92
2022/02/20 00:33:16;;;;;;;34.00;24.20;;;;;;;9.37;53.03;99723.84;4976371;28;20110;-92
2022/02/20 00:35:42;;;;;;;33.83;23.83;;;;;;;9.81;53.15;99779.66;4976106;28;20035;-92
2022/02/20 00:38:09;;;;;;;33.53;22.13;;;;;;;9.60;52.77;99737.16;4959480;28;20034;-92
2022/02/20 00:40:35;;;;;;;28.42;21.25;;;;;;;9.75;53.01;99756.59;4958813;28;20035;-92
2022/02/20 00:43:01;;;;;;;26.70;18.65;;;;;;;9.89;52.89;99794.66;4959337;28;20027;-92
2022/02/20 00:45:27;;;;;;;22.50;15.77;;;;;;;9.87;53.04;99784.25;4960302;28;20022;-92
2022/02/20 00:47:53;;;;;;;25.38;17.02;;;;;;;9.12;52.65;99678.25;4959299;28;20023;-91
2022/02/20 00:50:19;;;;;;;26.55;17.65;;;;;;;9.09;52.84;99691.75;4959003;28;20092;-93
2022/02/20 00:52:45;;;;;;;27.33;18.17;;;;;;;9.04;53.20;99709.84;4978706;28;20455;-93
2022/02/20 00:55:11;;;;;;;25.40;17.02;;;;;;;9.67;53.02;99777.69;4959507;28;20042;-92
2022/02/20 00:57:36;;;;;;;27.60;20.27;;;;;;;8.82;53.50;99636.72;4959006;28;20027;-93
2022/02/20 01:00:05;;;;;;;27.05;17.05;;;;;;;9.79;53.60;99796.63;4958640;28;20030;-92
2022/02/20 01:02:30;;;;;;;26.20;18.23;;;;;;;8.86;53.29;99659.94;4958963;28;20023;-92
2022/02/20 01:04:56;;;;;;;32.33;21.58;;;;;;;8.82;53.26;99670.97;4958611;28;20029;-92
2022/02/20 01:07:22;;;;;;;33.80;22.63;;;;;;;9.83;53.24;99808.50;4958313;28;20496;-92
2022/02/20 01:09:48;;;;;;;33.53;22.27;;;;;;;8.46;53.29;99639.66;4959948;28;20599;-92
2022/02/20 01:12:16;;;;;;;39.83;24.55;;;;;;;9.81;53.17;99813.13;4975560;28;20035;-92
2022/02/20 01:14:41;;;;;;;35.22;23.48;;;;;;;9.34;53.37;99753.16;4958222;28;20102;-92
2022/02/20 01:17:07;;;;;;;37.53;24.88;;;;;;;9.13;53.53;99697.50;4959000;28;20035;-92
2022/02/20 01:19:32;;;;;;;39.65;24.52;;;;;;;9.18;53.64;99721.53;4958179;28;20030;-92
2022/02/20 01:21:58;;;;;;;41.53;27.00;;;;;;;9.16;53.44;99723.50;4958353;28;20113;-92
2022/02/20 01:24:23;;;;;;;37.13;26.98;;;;;;;9.20;52.99;99724.81;4960081;28;20032;-92
2022/02/20 01:26:49;;;;;;;35.67;24.58;;;;;;;8.51;53.25;99608.44;4958283;28;20023;-92
2022/02/20 01:29:14;;;;;;;38.45;25.08;;;;;;;8.91;52.91;99665.53;4958139;28;20114;-92
2022/02/20 01:31:40;;;;;;;38.42;26.02;;;;;;;9.12;53.15;99680.03;4958941;28;20029;-92
2022/02/20 01:34:05;;;;;;;36.78;24.45;;;;;;;9.46;53.50;99736.00;4957970;28;20031;-92
2022/02/20 01:36:30;;;;;;;38.80;25.75;;;;;;;8.95;53.24;99683.66;4958028;28;20086;-92
2022/02/20 01:38:56;;;;;;;32.20;22.00;;;;;;;9.37;53.33;99702.75;4958163;28;20037;-92
2022/02/20 01:41:21;;;;;;;31.67;21.67;;;;;;;9.10;53.66;99695.19;4957966;28;20030;-92
2022/02/20 01:43:51;;;;;;;31.90;22.00;;;;;;;8.68;53.75;99622.41;4957924;28;20109;-92
2022/02/20 01:46:17;;;;;;;29.92;20.70;;;;;;;9.30;53.91;99759.72;4958526;28;20488;-93
2022/02/20 01:48:42;;;;;;;32.75;22.48;;;;;;;8.83;53.95;99654.19;4958682;28;20029;-91
2022/02/20 01:51:07;;;;;;;36.97;21.52;;;;;;;8.53;53.92;99589.84;4959530;28;20523;-91
2022/02/20 01:53:33;;;;;;;28.52;19.92;;;;;;;9.63;54.13;99773.72;4981438;28;20037;-91
2022/02/20 01:56:00;;;;;;;32.53;22.20;;;;;;;9.37;54.09;99726.47;4982427;28;20034;-90
2022/02/20 01:58:25;;;;;;;33.15;21.75;;;;;;;9.05;53.95;99655.34;4964078;28;20037;-92
2022/02/20 02:00:51;;;;;;;32.95;22.48;;;;;;;8.97;53.88;99655.38;4958394;28;20113;-92
2022/02/20 02:03:16;;;;;;;35.03;24.60;;;;;;;8.89;54.17;99653.53;4958185;28;20506;-92
2022/02/20 02:05:43;;;;;;;30.98;22.73;;;;;;;9.64;54.07;99742.91;4958043;28;20460;-93
2022/02/20 02:08:10;;;;;;;33.20;24.27;;;;;;;9.56;53.85;99751.66;4957723;28;20052;-92
2022/02/20 02:10:36;;;;;;;28.85;21.35;;;;;;;8.97;53.71;99656.19;4957641;28;20041;-92
2022/02/20 02:13:01;;;;;;;29.52;21.52;;;;;;;8.90;54.04;99653.34;4957137;28;20113;-92
2022/02/20 02:15:27;;;;;;;27.52;20.13;;;;;;;8.95;53.93;99654.69;4957734;28;20037;-92
2022/02/20 02:17:52;;;;;;;25.98;19.45;;;;;;;9.16;54.11;99689.25;4956818;28;20499;-91
2022/02/20 02:20:18;;;;;;;28.95;21.60;;;;;;;8.68;54.18;99618.97;4957100;28;20051;-92
2022/02/20 02:22:43;;;;;;;29.58;21.08;;;;;;;8.95;54.24;99654.69;4957390;28;20400;-92
2022/02/20 02:25:09;;;;;;;24.17;17.50;;;;;;;9.49;54.59;99740.94;4957336;28;20027;-93
2022/02/20 02:27:35;;;;;;;25.65;18.92;;;;;;;9.12;54.11;99691.41;4974693;28;20027;-90
2022/02/20 02:30:05;;;;;;;21.27;17.88;;;;;;;8.57;54.29;99605.16;4977531;28;20037;-92
2022/02/20 02:32:30;;;;;;;25.65;18.55;;;;;;;9.40;54.05;99731.41;4965980;28;20500;-92
2022/02/20 02:34:56;;;;;;;24.33;17.17;;;;;;;7.67;54.31;99466.56;4964802;28;20098;-92
2022/02/20 02:37:22;;;;;;;25.35;18.67;;;;;;;8.17;53.91;99558.50;4964019;28;20027;-92
2022/02/20 02:39:48;;;;;;;25.95;18.50;;;;;;;8.70;54.71;99615.19;4957899;28;20051;-93
2022/02/20 02:42:14;;;;;;;25.42;17.85;;;;;;;9.54;54.39;99769.44;4956985;28;20122;-92
2022/02/20 02:44:40;;;;;;;21.98;17.17;;;;;;;9.53;54.29;99767.78;4956755;28;20125;-92
2022/02/20 02:47:07;;;;;;;23.13;17.50;;;;;;;9.29;54.84;99752.81;4958080;28;20030;-92
2022/02/20 02:49:34;;;;;;;24.35;17.98;;;;;;;9.41;54.49;99758.59;4956065;28;20140;-93
2022/02/20 02:51:59;;;;;;;31.10;19.85;;;;;;;8.51;54.93;99636.56;4956701;28;20484;-93
2022/02/20 02:54:25;;;;;;;25.63;19.02;;;;;;;8.53;54.91;99639.84;4958797;28;20102;-92
2022/02/20 02:56:51;;;;;;;37.03;22.90;;;;;;;9.40;55.08;99778.03;4956585;28;20031;-92
2022/02/20 02:59:17;;;;;;;30.40;22.33;;;;;;;9.41;54.80;99777.84;4956556;28;20090;-92
2022/02/20 03:01:44;;;;;;;29.75;18.58;;;;;;;9.24;54.87;99770.94;4957035;28;20026;-92
2022/02/20 03:04:09;;;;;;;26.08;19.52;;;;;;;9.18;54.93;99756.59;4956476;28;20031;-91
2022/02/20 03:06:35;;;;;;;26.33;16.75;;;;;;;8.08;54.77;99585.78;4956304;28;20023;-93
2022/02/20 03:09:01;;;;;;;21.63;15.65;;;;;;;8.54;54.90;99694.94;4956801;28;20061;-92
2022/02/20 03:11:27;;;;;;;22.30;15.65;;;;;;;8.44;55.01;99660.06;4956132;28;20504;-92
2022/02/20 03:13:52;;;;;;;21.60;14.60;;;;;;;8.28;54.83;99645.03;4956044;28;20031;-92
2022/02/20 03:16:18;;;;;;;17.88;14.30;;;;;;;9.17;55.00;99765.50;4956387;28;20023;-93
2022/02/20 03:18:43;;;;;;;20.13;13.00;;;;;;;8.26;54.92;99630.38;4956324;28;20066;-93
2022/02/20 03:21:09;;;;;;;13.80;10.25;;;;;;;8.84;54.81;99703.22;4956274;28;20475;-92
2022/02/20 03:23:35;;;;;;;14.95;10.90;;;;;;;8.34;54.92;99653.28;4957898;28;20027;-93
2022/02/20 03:26:02;;;;;;;13.85;9.77;;;;;;;9.03;55.29;99760.88;4955913;28;20031;-92
2022/02/20 03:28:27;;;;;;;13.98;10.00;;;;;;;8.48;55.48;99678.97;4956185;28;20393;-92
2022/02/20 03:30:53;;;;;;;38.33;22.83;;;;;;;8.54;55.47;99705.47;4957321;28;20035;-93
2022/02/20 03:33:19;;;;;;;39.33;24.17;;;;;;;8.87;55.70;99764.28;4956434;28;20027;-92
2022/02/20 03:35:45;;;;;;;44.20;29.83;;;;;;;8.06;55.31;99661.38;4973456;28;20116;-93
2022/02/20 03:38:11;;;;;;;21.52;13.70;;;;;;;8.69;55.40;99758.31;4956661;28;20030;-92
2022/02/20 03:40:36;;;;;;;13.15;10.85;;;;;;;8.04;55.30;99670.41;4956047;28;20085;-93
2022/02/20 03:43:02;;;;;;;13.90;10.65;;;;;;;8.35;55.70;99747.84;4956006;28;20026;-93
2022/02/20 03:45:29;;;;;;;16.60;11.75;;;;;;;8.67;55.78;99788.41;4956130;28;20381;-92
2022/02/20 03:47:55;;;;;;;14.00;11.13;;;;;;;8.68;56.06;99793.50;4955787;28;20030;-93
2022/02/20 03:50:22;;;;;;;16.35;10.30;;;;;;;8.70;55.94;99777.56;4955541;28;20068;-93
2022/02/20 03:52:49;;;;;;;14.73;11.98;;;;;;;8.61;55.32;99742.50;4956373;28;20496;-93
2022/02/20 03:55:15;;;;;;;17.63;11.57;;;;;;;8.64;55.57;99771.13;4955798;28;20384;-93
2022/02/20 03:57:40;;;;;;;16.17;11.50;;;;;;;8.00;55.43;99672.53;4955852;28;20034;-93
2022/02/20 04:00:10;;;;;;;16.55;11.35;;;;;;;7.96;55.14;99672.00;4956407;28;20031;-93
2022/02/20 04:02:39;;;;;;;16.63;11.40;;;;;;;8.65;55.32;99778.03;4959410;28;20034;-93
2022/02/20 04:05:07;;;;;;;13.75;10.88;;;;;;;8.62;55.48;99746.78;4976960;28;20035;-91
2022/02/20 04:07:33;;;;;;;18.63;12.10;;;;;;;7.43;55.60;99568.94;4962598;28;20026;-93
2022/02/20 04:09:59;;;;;;;17.02;12.25;;;;;;;7.87;55.76;99651.09;4959690;28;20412;-92
2022/02/20 04:12:25;;;;;;;15.75;11.20;;;;;;;8.44;55.71;99775.00;4959597;28;20030;-93
2022/02/20 04:14:51;;;;;;;15.30;11.32;;;;;;;8.08;55.80;99687.50;4961086;28;20042;-93
2022/02/20 04:17:20;;;;;;;16.27;11.15;;;;;;;7.87;55.48;99651.94;4959508;28;20154;-93
2022/02/20 04:19:46;;;;;;;21.63;15.25;;;;;;;8.03;55.41;99681.91;4959394;28;20030;-93
2022/02/20 04:22:11;;;;;;;44.35;23.75;;;;;;;8.38;55.58;99770.38;4960323;28;20089;-93
2022/02/20 04:24:37;;;;;;;33.35;20.23;;;;;;;7.78;55.52;99684.41;4959564;28;20027;-93
2022/02/20 04:27:03;;;;;;;18.52;12.93;;;;;;;7.66;55.60;99638.38;4959473;28;20037;-93
2022/02/20 04:29:28;;;;;;;17.67;12.98;;;;;;;7.79;55.75;99638.75;4961454;28;20117;-92
2022/02/20 04:31:54;;;;;;;19.02;13.07;;;;;;;7.26;55.47;99562.78;4959582;28;20031;-93
2022/02/20 04:34:19;;;;;;;20.17;13.88;;;;;;;6.82;55.44;99507.75;4959418;28;20033;-93
2022/02/20 04:36:45;;;;;;;16.02;13.23;;;;;;;7.93;55.30;99669.69;4959562;28;20031;-92
2022/02/20 04:39:10;;;;;;;19.30;13.00;;;;;;;7.49;55.41;99613.81;4959605;28;20524;-92
2022/02/20 04:41:36;;;;;;;16.75;12.60;;;;;;;8.35;55.51;99729.44;4959335;28;20037;-94
2022/02/20 04:44:01;;;;;;;18.15;12.43;;;;;;;8.22;55.53;99708.78;4959425;28;20073;-92
2022/02/20 04:46:27;;;;;;;18.83;13.35;;;;;;;7.34;54.96;99599.59;4959180;28;20034;-92
2022/02/20 04:48:53;;;;;;;23.20;14.48;;;;;;;7.80;55.37;99650.09;4959376;28;20097;-92
2022/02/20 04:51:18;;;;;;;24.55;17.55;;;;;;;8.35;55.58;99718.91;4959885;28;20412;-93
2022/02/20 04:53:43;;;;;;;26.70;18.17;;;;;;;7.57;55.36;99571.81;4959149;28;20034;-93
2022/02/20 04:56:09;;;;;;;28.30;18.52;;;;;;;8.14;55.44;99650.88;4959501;28;20575;-92
2022/02/20 04:58:35;;;;;;;27.83;20.02;;;;;;;7.97;55.18;99634.22;4959822;28;20031;-93
2022/02/20 05:01:00;;;;;;;25.42;18.70;;;;;;;8.12;55.25;99658.09;4959104;28;20069;-93
2022/02/20 05:03:27;;;;;;;26.52;18.77;;;;;;;7.82;55.29;99619.22;4959585;28;20038;-93
2022/02/20 05:05:52;;;;;;;29.45;20.25;;;;;;;7.76;55.25;99611.97;4960040;28;20089;-93
2022/02/20 05:08:18;;;;;;;26.58;19.55;;;;;;;7.79;55.19;99630.03;4959001;28;20026;-93
2022/02/20 05:10:43;;;;;;;28.25;18.83;;;;;;;7.54;55.50;99589.69;4959231;28;20500;-92
2022/02/20 05:13:09;;;;;;;28.08;20.30;;;;;;;7.62;55.53;99606.31;4958344;28;20027;-92
2022/02/20 05:15:34;;;;;;;31.40;22.75;;;;;;;7.61;55.47;99599.41;4960294;28;20027;-93
2022/02/20 05:18:00;;;;;;;31.33;22.13;;;;;;;8.22;55.30;99714.06;4959033;28;20126;-93
2022/02/20 05:20:26;;;;;;;34.60;22.08;;;;;;;8.28;55.22;99720.50;4959048;28;20504;-93
2022/02/20 05:22:51;;;;;;;33.22;23.90;;;;;;;7.69;55.11;99638.06;4959786;28;20401;-93
2022/02/20 05:25:17;;;;;;;32.05;21.45;;;;;;;7.14;54.90;99572.72;4959032;28;20031;-93
2022/02/20 05:27:43;;;;;;;26.65;19.98;;;;;;;7.68;55.23;99625.91;4958875;28;20022;-92
2022/02/20 05:30:10;;;;;;;24.73;19.92;;;;;;;7.31;55.23;99582.34;4959391;28;20027;-92
2022/02/20 05:32:36;;;;;;;29.58;19.23;;;;;;;7.42;55.03;99636.41;4958521;28;20500;-93
2022/02/20 05:35:02;;;;;;;29.77;18.98;;;;;;;7.37;55.31;99641.31;4958282;28;20037;-92
2022/02/20 05:37:28;;;;;;;50.05;32.10;;;;;;;8.13;55.50;99738.66;4958232;28;20065;-93
2022/02/20 05:39:53;;;;;;;45.05;30.23;;;;;;;7.70;55.43;99670.41;4958362;28;20034;-92
2022/02/20 05:42:19;;;;;;;27.92;22.02;;;;;;;7.43;55.36;99638.09;4958115;28;20085;-92
2022/02/20 05:44:44;;;;;;;34.08;24.23;;;;;;;7.54;55.53;99643.06;4959216;28;20026;-93
2022/02/20 05:47:10;;;;;;;47.45;33.78;;;;;;;7.43;54.90;99658.25;4957899;28;20027;-93
2022/02/20 05:49:35;;;;;;;65.00;41.75;;;;;;;8.19;55.13;99766.97;4957928;28;20080;-93
2022/02/20 05:52:01;;;;;;;47.13;31.13;;;;;;;7.90;55.02;99742.81;4957672;28;20034;-92
2022/02/20 05:54:27;;;;;;;40.78;25.63;;;;;;;7.39;55.06;99681.38;4960263;28;20114;-93
2022/02/20 05:56:52;;;;;;;40.85;28.05;;;;;;;7.22;55.40;99682.22;4957830;28;20030;-93
2022/02/20 05:59:18;;;;;;;63.80;39.80;;;;;;;8.02;55.10;99811.72;4957964;28;20444;-92
2022/02/20 06:01:43;;;;;;;46.72;33.33;;;;;;;6.74;54.93;99628.38;4958724;28;20109;-93
2022/02/20 06:04:09;;;;;;;47.30;31.15;;;;;;;7.28;55.19;99729.72;4957983;28;20041;-92
2022/02/20 06:06:34;;;;;;;37.88;27.42;;;;;;;7.95;55.50;99840.44;4957867;28;20022;-93
2022/02/20 06:09:00;;;;;;;38.03;27.65;;;;;;;6.91;54.98;99710.69;4958199;28;20411;-93
2022/02/20 06:11:26;;;;;;;33.10;24.33;;;;;;;7.97;55.04;99868.22;4962195;28;20087;-93
2022/02/20 06:13:52;;;;;;;28.40;21.85;;;;;;;7.49;54.92;99810.03;4986934;28;20141;-93
2022/02/20 06:16:18;;;;;;;28.33;21.60;;;;;;;6.66;55.49;99678.13;4971990;28;20484;-92
2022/02/20 06:18:45;;;;;;;31.30;22.42;;;;;;;7.86;55.46;99846.63;4970889;28;20030;-92
2022/02/20 06:21:11;;;;;;;30.83;22.45;;;;;;;7.82;55.26;99821.63;4961038;28;20036;-92
2022/02/20 06:23:37;;;;;;;28.58;21.67;;;;;;;7.00;55.03;99702.75;4958379;28;20022;-93
2022/02/20 06:26:02;;;;;;;25.45;19.70;;;;;;;7.37;55.29;99743.75;4962128;28;20034;-92
2022/02/20 06:28:28;;;;;;;27.10;20.02;;;;;;;7.87;54.98;99798.31;4974911;28;20058;-92
2022/02/20 06:30:53;;;;;;;25.08;19.05;;;;;;;7.91;55.09;99787.34;4957025;28;20396;-93
2022/02/20 06:33:19;;;;;;;29.17;22.63;;;;;;;7.49;54.77;99715.44;4957284;28;20056;-93
2022/02/20 06:35:44;;;;;;;28.67;22.90;;;;;;;7.94;54.66;99767.81;4957281;28;20038;-92
2022/02/20 06:38:10;;;;;;;29.75;23.45;;;;;;;7.54;54.64;99729.78;4956953;28;20041;-93
2022/02/20 06:40:36;;;;;;;32.08;24.52;;;;;;;7.12;54.28;99652.63;4957098;28;20027;-93
2022/02/20 06:43:02;;;;;;;40.63;30.40;;;;;;;7.14;54.48;99659.38;4957881;28;20037;-93
2022/02/20 06:45:28;;;;;;;43.03;30.63;;;;;;;8.04;54.56;99770.31;4958139;28;20030;-93
2022/02/20 06:47:53;;;;;;;42.40;29.70;;;;;;;8.50;54.58;99862.03;4977654;28;20095;-91
2022/02/20 06:50:19;;;;;;;37.97;26.65;;;;;;;8.54;54.56;99857.28;4982656;28;20047;-90
2022/02/20 06:52:44;;;;;;;33.22;21.83;;;;;;;8.16;54.07;99788.28;4970753;28;20031;-92
2022/02/20 06:55:13;;;;;;;28.90;20.55;;;;;;;7.87;54.03;99759.72;4964711;28;20511;-93
2022/02/20 06:57:40;;;;;;;31.95;21.27;;;;;;;8.73;54.00;99861.47;4963913;28;20046;-92
2022/02/20 07:00:11;;;;;;;31.40;23.13;;;;;;;7.86;54.02;99686.25;4961400;28;20035;-92
2022/02/20 07:02:38;;;;;;;31.60;23.33;;;;;;;8.34;54.19;99759.34;4958736;28;20496;-92
2022/02/20 07:05:05;;;;;;;34.70;24.95;;;;;;;7.75;53.87;99694.41;4974111;28;20045;-93
2022/02/20 07:07:31;;;;;;;31.95;24.17;;;;;;;9.02;53.49;99801.34;4956858;28;20037;-93
2022/02/20 07:09:57;;;;;;;34.38;25.08;;;;;;;8.94;54.11;99797.88;4956625;28;20416;-93
2022/02/20 07:12:22;;;;;;;38.20;25.23;;;;;;;9.00;53.65;99791.97;4957425;28;20514;-92
2022/02/20 07:14:48;;;;;;;33.40;22.33;;;;;;;8.93;53.64;99793.59;4956928;28;20420;-93
2022/02/20 07:17:13;;;;;;;31.60;21.30;;;;;;;8.16;53.60;99641.03;4956434;28;20092;-92
2022/02/20 07:19:39;;;;;;;30.77;21.80;;;;;;;9.22;53.52;99809.78;4957112;28;20027;-93
2022/02/20 07:22:04;;;;;;;32.35;24.55;;;;;;;9.08;53.48;99808.63;4956439;28;20031;-94
2022/02/20 07:24:30;;;;;;;29.00;21.35;;;;;;;9.05;53.29;99805.47;4956443;28;20413;-93
2022/02/20 07:26:55;;;;;;;33.70;24.13;;;;;;;8.38;53.44;99671.22;4957021;28;20022;-92
2022/02/20 07:29:21;;;;;;;33.53;22.58;;;;;;;7.91;53.58;99586.72;4956300;28;20027;-93
2022/02/20 07:31:47;;;;;;;39.60;26.75;;;;;;;9.30;53.44;99820.34;4956268;28;20022;-92
2022/02/20 07:34:13;;;;;;;33.80;24.73;;;;;;;9.04;53.37;99794.13;4956260;28;20109;-93
2022/02/20 07:36:41;;;;;;;28.50;21.90;;;;;;;9.10;53.73;99776.84;4956367;28;20058;-92
2022/02/20 07:39:11;;;;;;;26.85;18.15;;;;;;;9.34;53.50;99808.47;4956316;28;20033;-93
2022/02/20 07:41:38;;;;;;;23.42;18.00;;;;;;;9.00;53.98;99748.03;4956525;28;20397;-92
2022/02/20 07:44:05;;;;;;;27.55;19.95;;;;;;;8.77;53.75;99716.22;4958308;28;20488;-92
2022/02/20 07:46:31;;;;;;;30.67;22.73;;;;;;;9.42;53.36;99803.22;4956038;28;20059;-92
2022/02/20 07:48:59;;;;;;;32.88;22.85;;;;;;;8.42;53.46;99629.63;4956247;28;20039;-92
2022/02/20 07:51:26;;;;;;;25.17;20.05;;;;;;;9.49;53.37;99785.75;4956337;28;20419;-93
2022/02/20 07:53:52;;;;;;;26.17;21.05;;;;;;;9.04;53.81;99711.66;4957049;28;20035;-93
2022/02/20 07:56:17;;;;;;;25.63;20.48;;;;;;;9.24;53.31;99726.16;4956204;28;20026;-93
2022/02/20 07:58:43;;;;;;;28.35;22.38;;;;;;;9.02;53.80;99693.38;4956276;28;20030;-93
2022/02/20 08:01:10;;;;;;;29.52;21.60;;;;;;;9.70;53.23;99785.28;4957795;28;20027;-92
2022/02/20 08:03:36;;;;;;;24.98;19.73;;;;;;;9.52;53.12;99759.06;4956175;28;20031;-92
2022/02/20 08:06:03;;;;;;;30.13;23.15;;;;;;;9.64;53.23;99764.00;4955742;28;20026;-92
2022/02/20 08:08:29;;;;;;;33.03;25.35;;;;;;;9.87;53.25;99808.00;4955867;28;20062;-92
2022/02/20 08:10:56;;;;;;;42.05;28.40;;;;;;;9.87;53.29;99815.09;4956630;28;20037;-91
2022/02/20 08:13:22;;;;;;;58.90;40.30;;;;;;;9.70;53.42;99798.47;4955418;28;20484;-93
2022/02/20 08:15:47;;;;;;;60.70;40.22;;;;;;;9.18;52.86;99697.81;4955518;28;20038;-92
2022/02/20 08:18:13;;;;;;;37.20;26.48;;;;;;;9.18;53.15;99679.38;4955833;28;20061;-92
2022/02/20 08:20:40;;;;;;;39.13;27.13;;;;;;;9.35;53.03;99698.63;4955932;28;20420;-92
2022/02/20 08:23:06;;;;;;;41.80;28.05;;;;;;;8.94;52.78;99624.91;4955632;28;20420;-92
2022/02/20 08:25:32;;;;;;;40.33;28.38;;;;;;;10.09;52.72;99763.44;4955575;28;20027;-92
2022/02/20 08:27:57;;;;;;;36.00;24.05;;;;;;;9.06;52.71;99575.34;4956477;28;20027;-92
2022/02/20 08:30:23;;;;;;;35.33;24.73;;;;;;;8.78;52.65;99538.84;4972258;28;20420;-92
2022/02/20 08:32:49;;;;;;;33.97;24.70;;;;;;;9.89;52.38;99710.25;4955489;28;20057;-92
2022/02/20 08:35:14;;;;;;;34.05;23.13;;;;;;;9.76;51.94;99676.50;4955571;28;20062;-93
2022/02/20 08:37:45;;;;;;;32.13;24.80;;;;;;;9.72;52.02;99691.03;4953975;28;20050;-91
2022/02/20 08:40:16;;;;;;;32.60;24.42;;;;;;;10.47;51.86;99775.91;4950395;28;20034;-93
2022/02/20 08:42:41;;;;;;;37.47;24.77;;;;;;;9.22;51.91;99567.41;4952244;28;20080;-93
2022/02/20 08:45:07;;;;;;;36.72;26.23;;;;;;;10.51;51.77;99773.75;4954820;28;20478;-93
2022/02/20 08:47:33;;;;;;;29.48;21.38;;;;;;;10.73;51.12;99782.72;4954401;28;20034;-93
2022/02/20 08:50:00;;;;;;;34.20;22.35;;;;;;;10.22;50.91;99675.88;4957394;28;20500;-92
2022/02/20 08:52:26;;;;;;;31.95;20.75;;;;;;;10.85;51.35;99730.31;4958406;28;20518;-92
2022/02/20 08:54:51;;;;;;;33.45;23.38;;;;;;;9.62;50.91;99549.81;4959682;28;20027;-92
2022/02/20 08:57:17;;;;;;;34.63;23.45;;;;;;;10.79;50.61;99742.41;4958641;28;20086;-92
2022/02/20 08:59:44;;;;;;;31.38;22.55;;;;;;;11.07;50.44;99771.78;4958962;28;20405;-93
2022/02/20 09:02:10;;;;;;;34.83;22.85;;;;;;;10.58;50.45;99692.84;4958823;28;20031;-92
2022/02/20 09:04:37;;;;;;;34.30;24.52;;;;;;;10.65;50.78;99699.06;4959045;28;20034;-92
2022/02/20 09:07:03;;;;;;;34.05;24.25;;;;;;;10.91;50.50;99724.31;4958883;28;20031;-92
2022/02/20 09:09:29;;;;;;;35.97;26.92;;;;;;;11.23;50.83;99757.66;4958913;28;20089;-92
2022/02/20 09:11:55;;;;;;;36.90;27.13;;;;;;;11.31;49.91;99755.75;4959320;28;20022;-92
2022/02/20 09:14:20;;;;;;;33.88;26.27;;;;;;;11.09;49.94;99730.13;4957246;28;20107;-92
2022/02/20 09:16:46;;;;;;;35.03;26.77;;;;;;;10.99;50.48;99698.66;4958155;28;20062;-92
2022/02/20 09:19:11;;;;;;;32.90;25.95;;;;;;;10.43;50.13;99620.69;4958200;28;20098;-92
2022/02/20 09:21:37;;;;;;;38.70;29.30;;;;;;;11.56;50.01;99801.31;4960107;28;20030;-93
2022/02/20 09:24:03;;;;;;;36.67;28.45;;;;;;;10.42;49.87;99622.50;4958360;28;20034;-92
2022/02/20 09:26:28;;;;;;;37.25;29.38;;;;;;;11.35;49.66;99720.03;4958309;28;20423;-92
2022/02/20 09:28:54;;;;;;;35.17;26.30;;;;;;;9.88;49.87;99468.63;4959902;28;20400;-92
2022/02/20 09:31:20;;;;;;;35.53;25.80;;;;;;;11.63;49.77;99730.03;4958452;28;20027;-92
2022/02/20 09:33:45;;;;;;;35.65;24.23;;;;;;;10.43;49.12;99494.81;4958582;28;20027;-92
2022/02/20 09:36:11;;;;;;;25.02;20.65;;;;;;;10.96;49.83;99587.25;4958672;28;20026;-92
2022/02/20 09:38:36;;;;;;;30.05;18.73;;;;;;;10.79;49.95;99552.25;4959458;28;20031;-91
2022/02/20 09:41:09;;;;;;;30.05;21.02;;;;;;;11.78;49.84;99684.09;4958372;28;20027;-92
2022/02/20 09:43:37;;;;;;;28.73;22.98;;;;;;;11.94;49.72;99716.72;4958569;28;20031;-92
2022/02/20 09:46:03;;;;;;;31.42;23.67;;;;;;;11.53;49.51;99687.97;4958534;28;20411;-92
2022/02/20 09:48:29;;;;;;;27.15;21.23;;;;;;;11.09;49.62;99598.84;4978290;28;20030;-92
2022/02/20 09:50:55;;;;;;;30.77;21.05;;;;;;;11.22;49.53;99589.50;4958215;28;20109;-92
2022/02/20 09:53:20;;;;;;;29.77;19.58;;;;;;;12.11;49.62;99710.22;4958442;28;20126;-92
2022/02/20 09:55:48;;;;;;;24.42;20.15;;;;;;;12.12;49.41;99705.75;4956503;28;20046;-92
2022/02/20 09:58:16;;;;;;;27.00;20.05;;;;;;;12.15;49.97;99700.09;4958919;28;20033;-92
2022/02/20 10:00:51;;;;;;;27.92;21.20;;;;;;;12.22;50.17;99688.56;4958179;28;20035;-92
2022/02/20 10:03:47;;;;;;;28.30;20.88;;;;;;;12.30;49.00;99662.00;4957924;28;20053;-92
2022/02/20 10:06:18;;;;;;;27.70;20.17;;;;;;;12.48;49.33;99655.47;4960504;28;20038;-92
2022/02/20 10:08:45;;;;;;;23.15;17.45;;;;;;;12.11;48.92;99583.19;4958093;28;20026;-92
2022/02/20 10:11:12;;;;;;;24.15;17.35;;;;;;;12.64;48.43;99640.19;4958303;28;20070;-91
2022/02/20 10:13:37;;;;;;;20.20;15.68;;;;;;;12.03;48.77;99602.63;4957812;28;20071;-91
2022/02/20 10:16:16;;;;;;;22.48;16.33;;;;;;;12.20;48.41;99618.28;4958397;28;20023;-91
2022/02/20 10:18:45;;;;;;;21.27;16.52;;;;;;;12.33;47.74;99613.16;4957577;28;20126;-92
2022/02/20 10:21:12;;;;;;;23.83;16.20;;;;;;;12.65;47.93;99647.13;4957494;28;20435;-91
2022/02/20 10:23:39;;;;;;;17.00;11.43;;;;;;;13.01;47.40;99694.75;4957499;28;20027;-90
2022/02/20 10:26:13;;;;;;;14.63;11.30;;;;;;;13.19;46.94;99699.63;4957863;28;20031;-90
2022/02/20 10:29:07;;;;;;;17.20;12.15;;;;;;;13.08;46.61;99655.03;4974824;28;20496;-90
2022/02/20 10:31:50;;;;;;;15.45;10.32;;;;;;;12.65;46.28;99543.81;4975144;28;20031;-90
2022/02/20 10:34:20;;;;;;;15.63;10.50;;;;;;;13.42;45.98;99627.00;4958181;28;20031;-90
2022/02/20 10:36:55;;;;;;;12.45;9.73;;;;;;;12.78;45.60;99515.78;4957636;28;20030;-90
2022/02/20 10:39:25;;;;;;;19.50;13.20;;;;;;;13.59;45.63;99644.25;4979757;28;20042;-89
2022/02/20 10:41:54;;;;;;;18.98;13.68;;;;;;;13.68;45.57;99641.25;4977201;28;20126;-90
2022/02/20 10:44:20;;;;;;;18.73;13.18;;;;;;;13.85;45.01;99640.91;4967790;28;20499;-90
2022/02/20 10:46:46;;;;;;;17.92;11.27;;;;;;;13.97;44.33;99621.59;4962811;28;20057;-90
2022/02/20 10:49:27;;;;;;;19.67;12.50;;;;;;;13.84;43.92;99610.91;4974335;28;20034;-90
2022/02/20 10:51:54;;;;;;;19.52;13.80;;;;;;;13.89;43.96;99602.34;4957758;28;20039;-89
2022/02/20 10:54:19;;;;;;;21.23;15.75;;;;;;;14.24;43.66;99642.94;4957231;28;20495;-90
2022/02/20 10:56:47;;;;;;;30.48;20.60;;;;;;;14.05;43.55;99590.56;4973345;28;20072;-89
2022/02/20 10:59:13;;;;;;;22.63;15.82;;;;;;;14.31;42.95;99631.31;4974131;28;20026;-89
2022/02/20 11:01:39;;;;;;;23.92;16.23;;;;;;;14.54;42.72;99641.63;4956084;28;20023;-90
2022/02/20 11:04:10;;;;;;;26.77;15.48;;;;;;;14.19;42.72;99574.50;4955888;28;20101;-90
2022/02/20 11:06:37;;;;;;;23.43;17.23;;;;;;;13.95;42.78;99517.44;4955768;28;20015;-90
2022/02/20 11:09:04;;;;;;;23.75;15.93;;;;;;;13.90;42.69;99516.41;4955886;28;20081;-89
2022/02/20 11:11:38;;;;;;;24.10;17.50;;;;;;;14.67;42.75;99603.63;4957175;28;20428;-90
2022/02/20 11:14:05;;;;;;;18.92;15.00;;;;;;;13.92;42.38;99478.03;4955824;28;20389;-89
2022/02/20 11:16:31;;;;;;;22.75;16.80;;;;;;;14.86;42.16;99584.25;4955835;28;20026;-89
2022/02/20 11:19:00;;;;;;;16.58;13.38;;;;;;;14.64;41.90;99537.59;4955454;28;20023;-89
2022/02/20 11:21:26;;;;;;;17.60;13.20;;;;;;;14.52;42.15;99491.41;4955630;28;20046;-89